Weather at Charles de Gaulle International Airport

Public forecast

Using degrees Celsius for public forecast. Weather courtesy of forecast.io.

Current aviation weather report (METAR) for Charles de Gaulle International Airport

Retrieved 2020/10/31 01:30 UTC (0 seconds ago):

LFPG 310130Z 17005KT 9999 BKN034 14/10 Q1024 NOSIG

Aviation forecast (TAF) for Charles de Gaulle International Airport

Retrieved 2020-10-31 00:21 UTC (41 minutes ago):

TAF LFPG 302300Z 3100/0106 17006KT 9999 BKN035 TX16/3115Z TN09/3106Z PROB40 TEMPO 3103/3108 4000 BR PROB30 TEMPO 3105/3107 0900 FG VV/// BECMG 3108/3110 CAVOK BECMG 3114/3116 21015G25KT TEMPO 3116/0106 4000 RA PROB40 TEMPO 0105/0106 BKN007